createdAt,value
2018-09-02T00:00:33.332Z,66.41
2018-09-02T00:02:08.810Z,66.79
2018-09-02T00:03:44.391Z,66.46
2018-09-02T00:05:19.804Z,66.97
2018-09-02T00:06:55.546Z,66.70
2018-09-02T00:08:30.979Z,66.37
2018-09-02T00:10:07.759Z,66.73
2018-09-02T00:11:43.205Z,65.78
2018-09-02T00:13:18.619Z,65.78
2018-09-02T00:14:54.097Z,65.40
2018-09-02T00:16:30.086Z,65.27
2018-09-02T00:18:05.615Z,64.92
2018-09-02T00:19:41.026Z,65.37
2018-09-02T00:21:16.487Z,65.95
2018-09-02T00:22:52.047Z,65.32
2018-09-02T00:24:27.789Z,65.29
2018-09-02T00:26:04.421Z,65.42
2018-09-02T00:27:39.935Z,65.61
2018-09-02T00:29:16.440Z,65.32
2018-09-02T00:30:52.591Z,65.33
2018-09-02T00:32:28.658Z,65.25
2018-09-02T00:34:04.298Z,65.12
2018-09-02T00:35:39.802Z,65.14
2018-09-02T00:37:16.305Z,65.14
2018-09-02T00:38:51.852Z,65.07
2018-09-02T00:40:28.274Z,65.36
2018-09-02T00:42:03.719Z,64.84
2018-09-02T00:43:39.156Z,65.00
2018-09-02T00:45:14.588Z,65.36
2018-09-02T00:46:50.044Z,65.63
2018-09-02T00:48:26.211Z,65.25
2018-09-02T00:50:01.652Z,65.12
2018-09-02T00:51:37.110Z,65.08
2018-09-02T00:53:12.547Z,64.92
2018-09-02T00:54:49.121Z,64.57
2018-09-02T00:56:24.598Z,64.11
2018-09-02T00:58:00.970Z,64.07
2018-09-02T00:59:37.440Z,64.19
2018-09-02T01:01:12.967Z,64.19
2018-09-02T01:02:48.756Z,63.59
2018-09-02T01:04:24.184Z,63.12
2018-09-02T01:05:59.634Z,62.93
2018-09-02T01:07:35.103Z,64.04
2018-09-02T01:09:10.616Z,64.16
2018-09-02T01:10:46.691Z,64.80
2018-09-02T01:12:22.245Z,64.35
2018-09-02T01:13:57.707Z,64.05
2018-09-02T01:15:33.207Z,64.49
2018-09-02T01:17:08.652Z,63.69
2018-09-02T01:18:44.084Z,63.87
2018-09-02T01:20:19.532Z,63.67
2018-09-02T01:21:54.996Z,63.69
2018-09-02T01:23:30.603Z,64.01
2018-09-02T01:25:06.124Z,63.90
2018-09-02T01:26:41.559Z,64.12
2018-09-02T01:28:16.963Z,64.78
2018-09-02T01:29:52.431Z,64.94
2018-09-02T01:31:27.841Z,65.72
2018-09-02T01:33:03.425Z,65.73
2018-09-02T01:34:38.964Z,65.49
2018-09-02T01:36:14.495Z,65.94
2018-09-02T01:37:49.947Z,66.00
2018-09-02T01:39:25.396Z,66.98
2018-09-02T01:41:00.915Z,67.18
2018-09-02T01:42:36.364Z,67.81
2018-09-02T01:44:11.787Z,68.35
2018-09-02T01:45:47.227Z,68.47
2018-09-02T01:47:22.714Z,68.55
2018-09-02T01:48:58.109Z,68.41
2018-09-02T01:50:33.591Z,68.76
2018-09-02T01:52:09.104Z,68.50
2018-09-02T01:53:45.507Z,68.87
2018-09-02T01:55:21.072Z,68.71
2018-09-02T01:56:56.502Z,69.00
2018-09-02T01:58:31.966Z,68.99
2018-09-02T02:00:07.428Z,69.06
2018-09-02T02:01:42.921Z,69.34
2018-09-02T02:03:19.138Z,69.95
2018-09-02T02:04:54.605Z,69.67
2018-09-02T02:06:30.503Z,70.02
2018-09-02T02:08:06.056Z,70.54
2018-09-02T02:09:41.792Z,70.92
2018-09-02T02:11:17.587Z,71.06
2018-09-02T02:12:53.073Z,71.36
2018-09-02T02:14:28.888Z,71.16
2018-09-02T02:16:04.392Z,71.24
2018-09-02T02:17:39.798Z,71.17
2018-09-02T02:19:15.571Z,71.48
2018-09-02T02:20:50.980Z,71.78
2018-09-02T02:22:27.296Z,72.18
2018-09-02T02:24:02.805Z,72.36
2018-09-02T02:25:38.372Z,72.05
2018-09-02T02:27:13.837Z,72.88
2018-09-02T02:28:49.322Z,72.77
2018-09-02T02:30:25.725Z,72.69
2018-09-02T02:32:01.235Z,72.99
2018-09-02T02:33:36.677Z,72.71
2018-09-02T02:35:12.175Z,72.73
2018-09-02T02:36:48.086Z,73.28
2018-09-02T02:38:23.593Z,73.32
2018-09-02T02:39:59.088Z,73.45
2018-09-02T02:41:34.929Z,73.31
2018-09-02T02:43:10.646Z,73.90
2018-09-02T02:44:46.484Z,74.12
2018-09-02T02:46:21.968Z,74.49
2018-09-02T02:47:57.404Z,74.84
2018-09-02T02:49:32.861Z,75.39
2018-09-02T02:51:08.348Z,75.69
2018-09-02T02:52:49.160Z,76.12
2018-09-02T02:54:24.672Z,75.87
2018-09-02T02:56:00.140Z,76.30
2018-09-02T02:57:37.649Z,76.68
2018-09-02T02:59:13.098Z,76.58
2018-09-02T03:00:49.085Z,76.99
2018-09-02T03:02:24.543Z,77.39
2018-09-02T03:03:59.986Z,78.17
2018-09-02T03:05:35.468Z,78.67
2018-09-02T03:07:11.924Z,79.31
2018-09-02T03:08:47.433Z,79.67
2018-09-02T03:10:22.868Z,79.63
2018-09-02T03:11:58.980Z,80.31
2018-09-02T03:13:34.584Z,80.05
2018-09-02T03:15:10.032Z,80.77
2018-09-02T03:16:45.468Z,81.02
2018-09-02T03:18:20.891Z,80.67
2018-09-02T03:19:56.331Z,80.53
2018-09-02T03:21:31.785Z,80.25
2018-09-02T03:23:07.231Z,80.56
2018-09-02T03:24:42.725Z,80.59
2018-09-02T03:26:18.238Z,80.55
2018-09-02T03:27:53.698Z,80.12
2018-09-02T03:29:29.138Z,80.17
2018-09-02T03:31:04.803Z,79.79
2018-09-02T03:32:40.264Z,80.42
2018-09-02T03:34:15.763Z,81.23
2018-09-02T03:35:51.218Z,80.37
2018-09-02T03:37:26.649Z,81.19
2018-09-02T03:39:02.480Z,81.12
2018-09-02T03:40:37.930Z,80.79
2018-09-02T03:42:13.326Z,80.88
2018-09-02T03:43:48.772Z,81.01
2018-09-02T03:45:24.182Z,81.55
2018-09-02T03:46:59.593Z,81.15
2018-09-02T03:48:35.080Z,80.58
2018-09-02T03:50:10.500Z,80.96
2018-09-02T03:51:46.024Z,81.13
2018-09-02T03:53:21.462Z,81.16
2018-09-02T03:54:56.918Z,81.16
2018-09-02T03:56:32.385Z,81.26
2018-09-02T03:58:08.970Z,81.24
2018-09-02T03:59:44.432Z,81.03
2018-09-02T04:01:19.887Z,80.77
2018-09-02T04:02:55.314Z,80.28
2018-09-02T04:04:31.476Z,79.90
2018-09-02T04:06:06.917Z,79.68
2018-09-02T04:07:42.384Z,79.57
2018-09-02T04:09:17.828Z,79.14
2018-09-02T04:10:53.253Z,80.20
2018-09-02T04:12:28.701Z,80.25
2018-09-02T04:14:04.153Z,79.98
2018-09-02T04:15:39.591Z,79.39
2018-09-02T04:17:15.188Z,79.49
2018-09-02T04:18:50.655Z,79.27
2018-09-02T04:20:31.311Z,79.27
2018-09-02T04:22:06.733Z,79.36
2018-09-02T04:23:42.220Z,79.41
2018-09-02T04:25:17.654Z,79.07
2018-09-02T04:26:54.081Z,78.84
2018-09-02T04:28:29.616Z,78.89
2018-09-02T04:30:05.022Z,78.88
2018-09-02T04:31:41.468Z,79.41
2018-09-02T04:33:16.876Z,79.09
2018-09-02T04:34:52.356Z,79.01
2018-09-02T04:36:27.772Z,78.75
2018-09-02T04:38:03.234Z,78.73
2018-09-02T04:39:39.611Z,78.26
2018-09-02T04:41:15.045Z,78.41
2018-09-02T04:42:50.531Z,78.46
2018-09-02T04:44:25.948Z,77.56
2018-09-02T04:46:01.493Z,77.38
2018-09-02T04:49:18.547Z,76.68
2018-09-02T04:50:54.029Z,77.04
2018-09-02T04:52:29.480Z,76.73
2018-09-02T04:54:06.214Z,76.40
2018-09-02T04:55:41.680Z,76.32
2018-09-02T04:57:17.885Z,76.10
2018-09-02T04:58:53.329Z,75.99
2018-09-02T05:00:28.821Z,75.52
2018-09-02T05:02:04.225Z,76.16
2018-09-02T05:03:39.682Z,76.27
2018-09-02T05:05:15.172Z,76.67
2018-09-02T05:06:50.599Z,75.69
2018-09-02T05:08:26.320Z,76.01
2018-09-02T05:10:03.327Z,75.80
2018-09-02T05:11:38.796Z,75.45
2018-09-02T05:13:14.902Z,74.62
2018-09-02T05:14:52.167Z,74.43
2018-09-02T05:16:27.767Z,74.42
2018-09-02T05:18:03.604Z,74.16
2018-09-02T05:19:40.268Z,74.29
2018-09-02T05:21:15.721Z,74.64
2018-09-02T05:22:51.181Z,74.69
2018-09-02T05:24:26.749Z,74.56
2018-09-02T05:26:03.294Z,73.66
2018-09-02T05:27:38.746Z,74.20
2018-09-02T05:29:14.227Z,73.77
2018-09-02T05:30:49.651Z,73.78
2018-09-02T05:32:25.079Z,73.81
2018-09-02T05:34:01.341Z,73.93
2018-09-02T05:35:36.804Z,73.83
2018-09-02T05:37:12.307Z,73.34
2018-09-02T05:38:48.494Z,73.36
2018-09-02T05:40:23.913Z,73.08
2018-09-02T05:41:59.717Z,72.73
2018-09-02T05:43:35.840Z,73.38
2018-09-02T05:45:11.328Z,73.27
2018-09-02T05:46:46.972Z,73.66
2018-09-02T05:48:22.436Z,73.15
2018-09-02T05:49:59.029Z,73.74
2018-09-02T05:51:35.155Z,74.80
2018-09-02T05:53:11.024Z,74.54
2018-09-02T05:54:50.047Z,75.20
2018-09-02T05:56:25.578Z,76.05
2018-09-02T05:58:01.075Z,76.45
2018-09-02T05:59:37.666Z,76.89
2018-09-02T06:01:13.196Z,76.86
2018-09-02T06:02:48.769Z,77.54
2018-09-02T06:04:24.087Z,77.25
2018-09-02T06:05:59.517Z,78.78
2018-09-02T06:07:34.972Z,80.65
2018-09-02T06:09:10.424Z,81.36
2018-09-02T06:10:45.927Z,82.07
2018-09-02T06:12:21.486Z,83.77
2018-09-02T06:13:57.198Z,85.35
2018-09-02T06:15:34.482Z,86.24
2018-09-02T06:17:09.987Z,86.39
2018-09-02T06:18:45.419Z,87.06
2018-09-02T06:20:20.880Z,87.42
2018-09-02T06:21:56.407Z,87.69
2018-09-02T06:23:31.898Z,87.67
2018-09-02T06:25:07.339Z,88.43
2018-09-02T06:26:43.294Z,88.67
2018-09-02T06:28:18.735Z,88.84
2018-09-02T06:29:54.287Z,89.04
2018-09-02T06:31:29.716Z,88.66
2018-09-02T06:33:05.681Z,89.75
2018-09-02T06:34:41.130Z,89.64
2018-09-02T06:36:16.640Z,89.76
2018-09-02T06:37:53.176Z,89.54
2018-09-02T06:39:28.723Z,90.16
2018-09-02T06:41:04.131Z,90.17
2018-09-02T06:42:44.955Z,89.98
2018-09-02T06:44:20.429Z,90.31
2018-09-02T06:45:56.050Z,90.86
2018-09-02T06:47:31.545Z,90.64
2018-09-02T06:49:07.320Z,90.90
2018-09-02T06:50:44.784Z,91.15
2018-09-02T06:52:20.631Z,91.46
2018-09-02T06:53:56.360Z,91.52
2018-09-02T06:55:31.822Z,91.57
2018-09-02T06:57:08.309Z,91.14
2018-09-02T06:58:44.432Z,91.84
2018-09-02T07:00:26.503Z,92.17
2018-09-02T07:02:02.682Z,91.92
2018-09-02T07:03:38.417Z,91.51
2018-09-02T07:05:13.884Z,91.13
2018-09-02T07:06:49.414Z,91.51
2018-09-02T07:08:24.791Z,91.44
2018-09-02T07:10:00.332Z,91.13
2018-09-02T07:11:35.763Z,90.87
2018-09-02T07:13:11.922Z,90.22
2018-09-02T07:14:47.875Z,91.63
2018-09-02T07:16:23.329Z,91.18
2018-09-02T07:17:58.870Z,91.29
2018-09-02T07:19:34.365Z,90.28
2018-09-02T07:21:10.852Z,90.50
2018-09-02T07:22:46.821Z,90.83
2018-09-02T07:24:22.330Z,91.15
2018-09-02T07:25:57.842Z,91.00
2018-09-02T07:27:34.110Z,91.41
2018-09-02T07:29:10.490Z,92.35
2018-09-02T07:30:46.552Z,92.21
2018-09-02T07:32:22.641Z,91.81
2018-09-02T07:33:58.111Z,92.65
2018-09-02T07:35:34.080Z,92.44
2018-09-02T07:37:11.218Z,92.53
2018-09-02T07:38:47.109Z,92.05
2018-09-02T07:40:22.894Z,92.21
2018-09-02T07:41:58.497Z,92.61
2018-09-02T07:43:34.082Z,92.94
2018-09-02T07:45:10.360Z,93.59
2018-09-02T07:46:45.859Z,93.69
2018-09-02T07:48:21.375Z,93.59
2018-09-02T07:49:56.844Z,94.29
2018-09-02T07:51:32.337Z,95.37
2018-09-02T07:53:08.808Z,96.46
2018-09-02T07:54:44.308Z,96.46
2018-09-02T07:56:19.794Z,96.87
2018-09-02T07:57:55.253Z,96.82
2018-09-02T07:59:37.368Z,97.60
2018-09-02T08:01:13.129Z,97.57
2018-09-02T08:02:48.647Z,98.16
2018-09-02T08:04:24.123Z,98.00
2018-09-02T08:06:00.658Z,98.41
2018-09-02T08:07:36.132Z,98.85
2018-09-02T08:09:12.347Z,99.16
2018-09-02T08:10:48.887Z,100.00
2018-09-02T08:12:24.610Z,100.00
2018-09-02T08:14:00.018Z,100.00
2018-09-02T08:15:35.627Z,100.00
2018-09-02T08:17:11.166Z,100.00
2018-09-02T08:18:47.833Z,100.00
2018-09-02T08:20:23.299Z,100.00
2018-09-02T08:22:00.902Z,100.00
2018-09-02T08:23:36.649Z,100.00
2018-09-02T08:25:12.314Z,100.00
2018-09-02T08:26:48.055Z,100.00
2018-09-02T08:28:23.292Z,100.00
2018-09-02T08:29:58.917Z,100.00
2018-09-02T08:31:34.396Z,100.00
2018-09-02T08:33:10.263Z,100.00
2018-09-02T08:34:45.698Z,100.00
2018-09-02T08:36:22.181Z,100.00
2018-09-02T08:37:57.784Z,100.00
2018-09-02T08:39:33.316Z,100.00
2018-09-02T08:41:09.522Z,100.00
2018-09-02T08:42:45.101Z,100.00
2018-09-02T08:44:20.543Z,100.00
2018-09-02T08:45:57.564Z,100.00
2018-09-02T08:47:33.078Z,100.00
2018-09-02T08:49:08.750Z,100.00
2018-09-02T08:50:44.197Z,100.00
2018-09-02T08:52:19.699Z,100.00
2018-09-02T08:53:55.610Z,100.00
2018-09-02T08:55:31.081Z,100.00
2018-09-02T08:57:07.061Z,100.00
2018-09-02T08:58:43.087Z,100.00
2018-09-02T09:00:19.350Z,100.00
2018-09-02T09:01:54.820Z,100.00
2018-09-02T09:03:30.295Z,100.00
2018-09-02T09:05:05.966Z,100.00
2018-09-02T09:06:41.516Z,100.00
2018-09-02T09:08:17.178Z,100.00
2018-09-02T09:09:54.995Z,100.00
2018-09-02T09:11:30.749Z,100.00
2018-09-02T09:13:07.399Z,100.00
2018-09-02T09:14:42.852Z,100.00
2018-09-02T09:16:18.424Z,100.00
2018-09-02T09:17:53.979Z,100.00
2018-09-02T09:19:29.454Z,100.00
2018-09-02T09:21:05.138Z,100.00
2018-09-02T09:22:41.403Z,100.00
2018-09-02T09:24:17.973Z,100.00
2018-09-02T09:25:53.931Z,100.00
2018-09-02T09:27:29.696Z,100.00
2018-09-02T09:29:06.078Z,100.00
2018-09-02T09:30:41.583Z,100.00
2018-09-02T09:32:17.140Z,100.00
2018-09-02T09:33:52.668Z,100.00
2018-09-02T09:35:28.146Z,100.00
2018-09-02T09:37:03.632Z,100.00
2018-09-02T09:38:39.098Z,100.00
2018-09-02T09:40:14.602Z,100.00
2018-09-02T09:41:50.084Z,100.00
2018-09-02T09:43:25.522Z,100.00
2018-09-02T09:45:03.493Z,100.00
2018-09-02T09:46:41.194Z,100.00
2018-09-02T09:48:16.877Z,100.00
2018-09-02T09:49:54.094Z,100.00
2018-09-02T09:51:32.023Z,100.00
2018-09-02T09:53:09.585Z,100.00
2018-09-02T09:54:49.433Z,100.00
2018-09-02T09:56:30.041Z,100.00
2018-09-02T09:58:07.824Z,100.00
2018-09-02T09:59:43.264Z,100.00
2018-09-02T10:01:18.812Z,100.00
2018-09-02T10:02:54.353Z,100.00
2018-09-02T10:04:29.781Z,100.00
2018-09-02T10:06:06.363Z,100.00
2018-09-02T10:07:41.816Z,100.00
2018-09-02T10:09:17.291Z,100.00
2018-09-02T10:10:52.777Z,100.00
2018-09-02T10:12:28.904Z,100.00
2018-09-02T10:14:04.441Z,100.00
2018-09-02T10:15:39.928Z,100.00
2018-09-02T10:17:15.437Z,100.00
2018-09-02T10:18:50.887Z,100.00
2018-09-02T10:20:26.402Z,100.00
2018-09-02T10:22:01.918Z,100.00
2018-09-02T10:23:37.400Z,100.00
2018-09-02T10:25:12.926Z,100.00
2018-09-02T10:26:48.446Z,100.00
2018-09-02T10:28:23.967Z,100.00
2018-09-02T10:29:59.532Z,100.00
2018-09-02T10:31:35.057Z,100.00
2018-09-02T10:33:11.434Z,100.00
2018-09-02T10:34:48.999Z,100.00
2018-09-02T10:36:24.812Z,100.00
2018-09-02T10:38:00.443Z,100.00
2018-09-02T10:39:35.964Z,100.00
2018-09-02T10:41:11.679Z,100.00
2018-09-02T10:42:47.031Z,100.00
2018-09-02T10:44:22.505Z,100.00
2018-09-02T10:45:58.104Z,100.00
2018-09-02T10:47:33.634Z,100.00
2018-09-02T10:49:09.163Z,100.00
2018-09-02T10:50:45.031Z,100.00
2018-09-02T10:52:21.200Z,100.00
2018-09-02T10:53:57.373Z,100.00
2018-09-02T10:55:33.014Z,100.00
2018-09-02T10:57:09.207Z,100.00
2018-09-02T10:58:44.923Z,100.00
2018-09-02T11:00:22.174Z,100.00
2018-09-02T11:01:57.688Z,99.96
2018-09-02T11:03:33.275Z,100.00
2018-09-02T11:05:09.558Z,100.00
2018-09-02T11:06:46.248Z,100.00
2018-09-02T11:08:22.117Z,100.00
2018-09-02T11:09:57.590Z,100.00
2018-09-02T11:11:33.621Z,100.00
2018-09-02T11:13:09.207Z,100.00
2018-09-02T11:14:44.678Z,100.00
2018-09-02T11:16:20.529Z,100.00
2018-09-02T11:17:56.038Z,100.00
2018-09-02T11:19:31.569Z,100.00
2018-09-02T11:21:07.070Z,99.92
2018-09-02T11:22:42.566Z,99.28
2018-09-02T11:24:18.101Z,98.87
2018-09-02T11:25:53.614Z,99.76
2018-09-02T11:27:36.791Z,99.96
2018-09-02T11:29:13.223Z,100.00
2018-09-02T11:30:59.103Z,99.32
2018-09-02T11:32:36.884Z,100.00
2018-09-02T11:36:01.052Z,100.00
2018-09-02T11:37:36.515Z,100.00
2018-09-02T11:39:12.571Z,100.00
2018-09-02T11:40:49.019Z,100.00
2018-09-02T11:42:24.510Z,100.00
2018-09-02T11:44:00.064Z,99.95
2018-09-02T11:45:35.557Z,100.00
2018-09-02T11:47:11.560Z,100.00
2018-09-02T11:48:48.536Z,99.64
2018-09-02T11:50:24.531Z,100.00
2018-09-02T11:52:00.584Z,100.00
2018-09-02T11:53:35.980Z,100.00
2018-09-02T11:55:11.468Z,100.00
2018-09-02T11:56:46.896Z,100.00
2018-09-02T11:58:22.358Z,100.00
2018-09-02T11:59:58.386Z,100.00
2018-09-02T12:01:34.657Z,100.00
2018-09-02T12:03:11.382Z,99.20
2018-09-02T12:04:47.467Z,98.99
2018-09-02T12:06:22.831Z,99.67
2018-09-02T12:07:59.068Z,99.26
2018-09-02T12:09:34.585Z,99.69
2018-09-02T12:11:10.017Z,99.07
2018-09-02T12:12:45.615Z,99.39
2018-09-02T12:14:23.051Z,98.50
2018-09-02T12:15:59.321Z,97.97
2018-09-02T12:17:34.773Z,98.12
2018-09-02T12:19:10.705Z,98.32
2018-09-02T12:20:46.160Z,97.59
2018-09-02T12:22:21.638Z,98.06
2018-09-02T12:23:58.813Z,98.18
2018-09-02T12:25:34.265Z,99.13
2018-09-02T12:27:09.743Z,99.60
2018-09-02T12:28:45.939Z,98.93
2018-09-02T12:30:21.418Z,98.80
2018-09-02T12:31:56.918Z,98.14
2018-09-02T12:33:32.399Z,98.85
2018-09-02T12:35:07.868Z,98.90
2018-09-02T12:36:43.373Z,99.06
2018-09-02T12:38:18.956Z,99.23
2018-09-02T12:39:55.329Z,99.24
2018-09-02T12:41:30.817Z,99.63
2018-09-02T12:43:06.265Z,99.03
2018-09-02T12:44:41.773Z,97.92
2018-09-02T12:46:17.282Z,97.47
2018-09-02T12:47:52.840Z,98.14
2018-09-02T12:49:28.669Z,97.46
2018-09-02T12:51:04.256Z,97.59
2018-09-02T12:52:40.733Z,98.97
2018-09-02T12:54:16.332Z,98.22
2018-09-02T12:55:54.000Z,97.98
2018-09-02T12:57:30.510Z,98.33
2018-09-02T12:59:05.996Z,98.22
2018-09-02T13:00:42.601Z,98.57
2018-09-02T13:02:18.102Z,98.94
2018-09-02T13:03:53.651Z,98.99
2018-09-02T13:05:29.181Z,98.22
2018-09-02T13:07:05.372Z,97.48
2018-09-02T13:08:41.035Z,98.10
2018-09-02T13:10:16.536Z,98.50
2018-09-02T13:11:52.049Z,97.48
2018-09-02T13:13:28.158Z,97.53
2018-09-02T13:15:03.889Z,97.66
2018-09-02T13:16:42.120Z,98.38
2018-09-02T13:18:17.734Z,97.34
2018-09-02T13:19:56.104Z,97.49
2018-09-02T13:21:32.821Z,96.82
2018-09-02T13:23:09.080Z,96.65
2018-09-02T13:24:45.702Z,96.28
2018-09-02T13:26:21.871Z,96.33
2018-09-02T13:27:57.703Z,96.97
2018-09-02T13:29:33.195Z,96.35
2018-09-02T13:31:09.544Z,96.12
2018-09-02T13:32:45.048Z,96.28
2018-09-02T13:34:20.901Z,97.22
2018-09-02T13:35:57.540Z,97.31
2018-09-02T13:37:33.052Z,97.04
2018-09-02T13:39:09.937Z,97.51
2018-09-02T13:40:45.416Z,97.16
2018-09-02T13:42:20.895Z,97.34
2018-09-02T13:43:56.415Z,97.80
2018-09-02T13:45:31.915Z,97.78
2018-09-02T13:47:07.440Z,98.04
2018-09-02T13:48:43.109Z,97.08
2018-09-02T13:50:19.631Z,96.63
2018-09-02T13:51:56.563Z,96.42
2018-09-02T13:53:32.067Z,96.78
2018-09-02T13:55:07.604Z,97.00
2018-09-02T13:56:43.135Z,96.65
2018-09-02T13:58:19.663Z,96.46
2018-09-02T13:59:56.046Z,97.27
2018-09-02T14:01:31.640Z,97.29
2018-09-02T14:03:08.867Z,97.59
2018-09-02T14:04:44.361Z,96.77
2018-09-02T14:06:19.965Z,97.35
2018-09-02T14:07:55.514Z,97.56
2018-09-02T14:09:30.951Z,97.20
2018-09-02T14:11:06.505Z,96.93
2018-09-02T14:12:41.957Z,96.14
2018-09-02T14:14:17.594Z,96.33
2018-09-02T14:15:54.098Z,96.30
2018-09-02T14:17:29.747Z,96.05
2018-09-02T14:19:05.355Z,96.50
2018-09-02T14:20:40.898Z,96.09
2018-09-02T14:22:16.360Z,95.28
2018-09-02T14:23:52.477Z,95.87
2018-09-02T14:25:30.571Z,94.96
2018-09-02T14:27:06.164Z,94.53
2018-09-02T14:28:41.663Z,94.59
2018-09-02T14:30:18.035Z,93.73
2018-09-02T14:31:55.151Z,94.40
2018-09-02T14:33:31.442Z,94.01
2018-09-02T14:35:08.011Z,94.03
2018-09-02T14:36:43.650Z,94.39
2018-09-02T14:38:19.056Z,94.49
2018-09-02T14:39:55.271Z,94.46
2018-09-02T14:41:31.050Z,94.61
2018-09-02T14:43:07.547Z,94.71
2018-09-02T14:44:48.817Z,94.83
2018-09-02T14:46:25.675Z,94.26
2018-09-02T14:48:02.038Z,94.53
2018-09-02T14:49:37.543Z,93.55
2018-09-02T14:51:13.316Z,93.71
2018-09-02T14:52:48.899Z,94.23
2018-09-02T14:54:24.338Z,94.54
2018-09-02T14:56:03.772Z,95.11
2018-09-02T14:57:39.332Z,95.08
2018-09-02T14:59:14.901Z,96.07
2018-09-02T15:00:50.971Z,95.55
2018-09-02T15:02:29.083Z,95.64
2018-09-02T15:04:11.521Z,95.79
2018-09-02T15:05:48.753Z,96.23
2018-09-02T15:07:26.085Z,96.04
2018-09-02T15:09:03.182Z,96.40
2018-09-02T15:10:42.158Z,96.58
2018-09-02T15:12:17.648Z,96.01
2018-09-02T15:13:53.150Z,96.64
2018-09-02T15:15:32.832Z,96.17
2018-09-02T15:17:29.663Z,96.14
2018-09-02T15:19:09.963Z,96.25
2018-09-02T15:20:46.727Z,95.80
2018-09-02T15:22:23.567Z,96.38
2018-09-02T15:24:03.583Z,96.21
2018-09-02T15:25:39.300Z,96.69
2018-09-02T15:27:15.527Z,95.78
2018-09-02T15:28:50.987Z,95.78
2018-09-02T15:30:27.053Z,95.31
2018-09-02T15:32:02.865Z,95.51
2018-09-02T15:33:40.628Z,95.42
2018-09-02T15:35:16.094Z,95.78
2018-09-02T15:37:11.558Z,95.55
2018-09-02T15:38:49.512Z,96.12
2018-09-02T15:40:25.000Z,95.57
2018-09-02T15:42:01.024Z,96.32
2018-09-02T15:43:36.479Z,97.39
2018-09-02T15:45:12.634Z,96.73
2018-09-02T15:46:48.176Z,96.44
2018-09-02T15:48:23.683Z,96.21
2018-09-02T15:49:59.133Z,96.27
2018-09-02T15:51:34.699Z,95.98
2018-09-02T15:53:10.168Z,96.17
2018-09-02T15:54:46.139Z,96.15
2018-09-02T15:56:23.167Z,95.70
2018-09-02T15:57:59.239Z,95.46
2018-09-02T15:59:34.720Z,95.82
2018-09-02T16:01:10.242Z,96.12
2018-09-02T16:02:45.990Z,95.44
2018-09-02T16:04:21.498Z,94.50
2018-09-02T16:05:57.014Z,94.20
2018-09-02T16:07:33.045Z,93.70
2018-09-02T16:09:09.848Z,94.44
2018-09-02T16:10:52.390Z,94.03
2018-09-02T16:12:28.415Z,93.67
2018-09-02T16:14:03.961Z,93.28
2018-09-02T16:15:39.464Z,92.90
2018-09-02T16:17:15.288Z,93.14
2018-09-02T16:18:51.361Z,93.15
2018-09-02T16:20:30.953Z,92.90
2018-09-02T16:22:09.376Z,92.78
2018-09-02T16:23:46.546Z,92.53
2018-09-02T16:27:07.100Z,93.00
2018-09-02T16:28:42.594Z,93.31
2018-09-02T16:30:18.697Z,93.07
2018-09-02T16:31:54.202Z,93.64
2018-09-02T16:33:30.173Z,93.33
2018-09-02T16:35:06.602Z,93.62
2018-09-02T16:36:42.089Z,93.53
2018-09-02T16:38:17.633Z,93.93
2018-09-02T16:39:53.528Z,94.61
2018-09-02T16:41:29.626Z,94.60
2018-09-02T16:43:05.978Z,94.71
2018-09-02T16:44:43.471Z,94.27
2018-09-02T16:46:19.108Z,93.94
2018-09-02T16:47:54.552Z,94.50
2018-09-02T16:49:30.264Z,95.17
2018-09-02T16:51:07.110Z,95.83
2018-09-02T16:52:43.147Z,95.51
2018-09-02T16:54:19.106Z,95.55
2018-09-02T16:55:56.054Z,96.42
2018-09-02T16:57:32.287Z,96.00
2018-09-02T16:59:08.169Z,96.23
2018-09-02T17:00:44.344Z,95.53
2018-09-02T17:02:20.171Z,95.27
2018-09-02T17:04:03.942Z,95.40
2018-09-02T17:05:39.845Z,96.12
2018-09-02T17:07:17.749Z,95.94
2018-09-02T17:08:53.999Z,96.83
2018-09-02T17:10:29.564Z,97.25
2018-09-02T17:12:05.816Z,96.67
2018-09-02T17:13:41.427Z,96.82
2018-09-02T17:15:17.226Z,96.60
2018-09-02T17:16:53.026Z,96.33
2018-09-02T17:18:29.779Z,96.16
2018-09-02T17:20:05.652Z,97.16
2018-09-02T17:21:43.546Z,96.81
2018-09-02T17:23:19.265Z,97.23
2018-09-02T17:24:55.525Z,97.02
2018-09-02T17:26:31.313Z,97.22
2018-09-02T17:28:06.826Z,96.19
2018-09-02T17:29:43.397Z,95.92
2018-09-02T17:31:18.885Z,96.70
2018-09-02T17:32:57.934Z,96.22
2018-09-02T17:34:33.947Z,96.45
2018-09-02T17:36:09.703Z,96.47
2018-09-02T17:37:45.146Z,96.14
2018-09-02T17:39:20.969Z,97.17
2018-09-02T17:40:56.694Z,97.27
2018-09-02T17:42:33.658Z,96.84
2018-09-02T17:44:09.625Z,96.93
2018-09-02T17:45:45.620Z,97.72
2018-09-02T17:47:21.274Z,97.36
2018-09-02T17:48:56.893Z,96.93
2018-09-02T17:50:32.549Z,96.72
2018-09-02T17:52:08.092Z,95.88
2018-09-02T17:53:44.686Z,95.76
2018-09-02T17:55:20.255Z,94.98
2018-09-02T17:56:55.761Z,95.90
2018-09-02T17:58:31.292Z,95.78
2018-09-02T18:00:08.787Z,95.40
2018-09-02T18:01:44.286Z,96.11
2018-09-02T18:03:25.136Z,96.80
2018-09-02T18:05:00.964Z,97.19
2018-09-02T18:06:41.427Z,97.72
2018-09-02T18:08:17.099Z,97.54
2018-09-02T18:09:52.939Z,97.00
2018-09-02T18:11:28.467Z,96.37
2018-09-02T18:13:04.986Z,95.79
2018-09-02T18:14:40.903Z,96.71
2018-09-02T18:16:17.452Z,95.62
2018-09-02T18:17:52.953Z,95.57
2018-09-02T18:19:28.454Z,95.98
2018-09-02T18:21:03.982Z,95.77
2018-09-02T18:22:41.092Z,96.13
2018-09-02T18:24:16.994Z,95.57
2018-09-02T18:25:52.516Z,95.23
2018-09-02T18:27:31.036Z,95.35
2018-09-02T18:29:06.587Z,95.14
2018-09-02T18:30:42.137Z,95.90
2018-09-02T18:32:17.581Z,96.26
2018-09-02T18:33:54.395Z,96.89
2018-09-02T18:35:29.977Z,96.81
2018-09-02T18:37:05.574Z,96.57
2018-09-02T18:38:42.463Z,95.83
2018-09-02T18:40:18.859Z,96.35
2018-09-02T18:42:02.055Z,96.28
2018-09-02T18:43:38.724Z,95.04
2018-09-02T18:47:05.451Z,95.69
2018-09-02T18:48:47.636Z,95.94
2018-09-02T18:50:23.640Z,96.64
2018-09-02T18:51:59.713Z,96.53
2018-09-02T18:55:19.022Z,95.49
2018-09-02T18:56:55.778Z,95.15
2018-09-02T18:58:31.333Z,94.63
2018-09-02T19:00:08.894Z,94.90
2018-09-02T19:01:50.046Z,96.63
2018-09-02T19:03:27.665Z,97.18
2018-09-02T19:05:04.002Z,98.41
2018-09-02T19:06:41.127Z,98.86
2018-09-02T19:08:16.978Z,98.73
2018-09-02T19:09:53.501Z,99.40
2018-09-02T19:11:29.095Z,99.90
2018-09-02T19:13:10.984Z,99.94
2018-09-02T19:14:52.160Z,100.00
2018-09-02T19:16:29.302Z,100.00
2018-09-02T19:18:06.200Z,100.00
2018-09-02T19:19:45.782Z,100.00
2018-09-02T19:21:21.742Z,100.00
2018-09-02T19:22:58.804Z,100.00
2018-09-02T19:24:35.060Z,100.00
2018-09-02T19:26:10.581Z,100.00
2018-09-02T19:27:46.348Z,100.00
2018-09-02T19:29:24.056Z,100.00
2018-09-02T19:30:59.573Z,99.75
2018-09-02T19:32:35.178Z,99.66
2018-09-02T19:34:19.110Z,99.45
2018-09-02T19:35:55.428Z,100.00
2018-09-02T19:37:31.663Z,100.00
2018-09-02T19:39:09.841Z,100.00
2018-09-02T19:40:46.076Z,99.12
2018-09-02T19:42:21.509Z,98.35
2018-09-02T19:43:57.578Z,98.77
2018-09-02T19:45:39.192Z,98.96
2018-09-02T19:47:15.867Z,98.85
2018-09-02T19:48:51.594Z,99.00
2018-09-02T19:50:27.019Z,97.71
2018-09-02T19:53:47.125Z,97.77
2018-09-02T19:55:23.297Z,98.44
2018-09-02T19:56:58.810Z,98.63
2018-09-02T19:58:35.517Z,98.14
2018-09-02T20:00:11.927Z,98.14
2018-09-02T20:01:47.421Z,97.98
2018-09-02T20:03:23.179Z,98.42
2018-09-02T20:05:02.204Z,97.79
2018-09-02T20:06:38.990Z,98.22
2018-09-02T20:08:14.546Z,97.58
2018-09-02T20:09:50.814Z,97.86
2018-09-02T20:11:26.248Z,97.07
2018-09-02T20:13:02.313Z,96.71
2018-09-02T20:14:38.739Z,97.03
2018-09-02T20:16:14.315Z,97.39
2018-09-02T20:17:49.784Z,97.47
2018-09-02T20:19:26.327Z,97.79
2018-09-02T20:21:01.859Z,97.46
2018-09-02T20:22:38.392Z,97.51
2018-09-02T20:24:15.003Z,97.65
2018-09-02T20:27:31.884Z,97.40
2018-09-02T20:29:08.361Z,97.27
2018-09-02T20:30:44.432Z,97.15
2018-09-02T20:32:19.951Z,97.00
2018-09-02T20:33:55.527Z,97.35
2018-09-02T20:35:31.667Z,97.19
2018-09-02T20:37:08.063Z,96.91
2018-09-02T20:38:44.684Z,96.38
2018-09-02T20:40:20.345Z,96.80
2018-09-02T20:41:57.393Z,96.26